Terminal Aerodrome Forecast
Issued by NWS

Home | Current Version | Previous Version | Graphics & Text | Print | Product List | Glossary On
Versions: 1 2 3 4 5 6 7 8 9 10 11 12 13
000
FTUS45 KGGW 040200 AAA
TAFSDY
TAF AMD
KSDY 040236Z 0403/0424 31018G25KT P6SM SCT040 BKN060
      TEMPO 0403/0405 2SM -SHSN BKN030
     FM040600 31015KT P6SM VCSH BKN040
     FM041200 32010KT P6SM SCT040
      AMD LTD TO CLD VIS AND WIND=

USA.gov is the U.S. government's official web portal to all federal, state and local government web resources and services.